Time;durP1;ratioP1;P1;durP2;ratioP2;P2;SDS_P1;SDS_P2;PMS_P1;PMS_P2;Temp;Humidity;BMP_temperature;BMP_pressure;BME280_temperature;BME280_humidity;BME280_pressure;Samples;Min_cycle;Max_cycle;Signal;HPM_P1;HPM_P2
2022/05/20 00:00:21;;;;;;;30.15;19.13;;;;;;;;;;5047668;28;20189;-67
2022/05/20 00:02:47;;;;;;;32.95;20.45;;;;;;;;;;5049725;28;20195;-67
2022/05/20 00:05:12;;;;;;;28.63;18.45;;;;;;;;;;5045563;28;20200;-67
2022/05/20 00:07:39;;;;;;;29.40;20.00;;;;;;;;;;5050944;28;20887;-67
2022/05/20 00:10:05;;;;;;;33.00;20.45;;;;;;;;;;5043978;28;20420;-67
2022/05/20 00:12:30;;;;;;;31.83;19.73;;;;;;;;;;5039454;28;20256;-68
2022/05/20 00:14:56;;;;;;;31.27;19.67;;;;;;;;;;5043518;28;20205;-67
2022/05/20 00:17:21;;;;;;;32.85;20.73;;;;;;;;;;5033444;28;20197;-67
2022/05/20 00:19:47;;;;;;;31.90;19.15;;;;;;;;;;5030552;28;20186;-68
2022/05/20 00:22:12;;;;;;;34.72;21.10;;;;;;;;;;5044071;28;20857;-67
2022/05/20 00:25:45;;;;;;;31.83;21.52;;;;;;;;;;5044324;28;20280;-68
2022/05/20 00:27:23;;;;;;;37.50;21.50;;;;;;;;;;5030422;28;20222;-67
2022/05/20 00:29:48;;;;;;;33.08;21.15;;;;;;;;;;5038501;28;20231;-66
2022/05/20 00:32:13;;;;;;;37.50;21.63;;;;;;;;;;5033851;28;20209;-67
2022/05/20 00:34:39;;;;;;;34.92;21.48;;;;;;;;;;5029863;28;20701;-67
2022/05/20 00:37:04;;;;;;;35.78;21.90;;;;;;;;;;5044026;28;20186;-68
2022/05/20 00:39:29;;;;;;;37.60;23.02;;;;;;;;;;5039448;28;20585;-67
2022/05/20 00:41:55;;;;;;;36.95;22.80;;;;;;;;;;5037449;28;20209;-67
2022/05/20 00:44:20;;;;;;;37.92;23.95;;;;;;;;;;5035429;28;20189;-68
2022/05/20 00:46:45;;;;;;;34.85;21.80;;;;;;;;;;5042768;28;20185;-67
2022/05/20 00:49:14;;;;;;;39.72;23.75;;;;;;;;;;5034069;28;20272;-67
2022/05/20 00:51:44;;;;;;;41.83;23.67;;;;;;;;;;5035652;28;20205;-67
2022/05/20 00:54:20;;;;;;;35.80;22.90;;;;;;;;;;5035757;28;20512;-67
2022/05/20 00:56:52;;;;;;;40.40;25.17;;;;;;;;;;5043468;28;20191;-67
2022/05/20 00:59:24;;;;;;;40.95;25.23;;;;;;;;;;5037565;28;20874;-67
2022/05/20 01:01:52;;;;;;;41.55;24.17;;;;;;;;;;5039170;28;20182;-67
2022/05/20 01:04:19;;;;;;;44.60;25.50;;;;;;;;;;5040879;28;20181;-67
2022/05/20 01:06:44;;;;;;;40.20;25.77;;;;;;;;;;5044353;28;20585;-68
2022/05/20 01:09:09;;;;;;;43.00;25.77;;;;;;;;;;5048971;28;20543;-67
2022/05/20 01:11:36;;;;;;;45.28;28.13;;;;;;;;;;5031043;28;20599;-68
2022/05/20 01:14:02;;;;;;;40.50;25.42;;;;;;;;;;5042453;28;20722;-68
2022/05/20 01:16:28;;;;;;;40.70;23.80;;;;;;;;;;5048113;28;20182;-68
2022/05/20 01:18:56;;;;;;;38.38;22.10;;;;;;;;;;5042639;28;20178;-68
2022/05/20 01:21:22;;;;;;;32.60;22.27;;;;;;;;;;5039125;28;20189;-68
2022/05/20 01:23:48;;;;;;;34.95;22.95;;;;;;;;;;5047871;28;20177;-68
2022/05/20 01:26:13;;;;;;;34.35;21.63;;;;;;;;;;5034573;28;20181;-68
2022/05/20 01:28:39;;;;;;;33.92;21.60;;;;;;;;;;5041382;28;20189;-68
2022/05/20 01:31:15;;;;;;;35.78;22.92;;;;;;;;;;5032958;28;20202;-68
2022/05/20 01:33:48;;;;;;;37.45;22.55;;;;;;;;;;5036627;28;20197;-68
2022/05/20 01:36:17;;;;;;;36.45;22.95;;;;;;;;;;5042890;28;20185;-68
2022/05/20 01:38:42;;;;;;;28.98;20.70;;;;;;;;;;5048490;28;20276;-68
2022/05/20 01:41:14;;;;;;;33.58;22.38;;;;;;;;;;5046819;28;20326;-68
2022/05/20 01:44:11;;;;;;;33.83;22.83;;;;;;;;;;5039423;28;20177;-68
2022/05/20 01:46:45;;;;;;;37.10;23.23;;;;;;;;;;5030586;28;20197;-68
2022/05/20 01:49:25;;;;;;;35.42;23.38;;;;;;;;;;5037125;28;20177;-68
2022/05/20 01:51:53;;;;;;;35.08;22.75;;;;;;;;;;5035067;28;20192;-68
2022/05/20 01:54:35;;;;;;;40.13;24.38;;;;;;;;;;5041140;28;20227;-68
2022/05/20 01:57:27;;;;;;;40.47;25.38;;;;;;;;;;5032067;28;20358;-68
2022/05/20 02:00:20;;;;;;;33.53;23.25;;;;;;;;;;5033556;28;20248;-69
2022/05/20 02:02:53;;;;;;;35.15;22.70;;;;;;;;;;5038426;28;20210;-68
2022/05/20 02:05:43;;;;;;;38.78;23.98;;;;;;;;;;5034830;28;20193;-68
2022/05/20 02:08:17;;;;;;;37.70;24.15;;;;;;;;;;5037076;28;20201;-68
2022/05/20 02:11:09;;;;;;;35.25;21.73;;;;;;;;;;5039050;28;20239;-68
2022/05/20 02:13:41;;;;;;;35.03;22.13;;;;;;;;;;5034392;28;20221;-68
2022/05/20 02:16:10;;;;;;;33.05;21.52;;;;;;;;;;5040312;28;20614;-68
2022/05/20 02:18:43;;;;;;;36.22;24.23;;;;;;;;;;5034062;28;20182;-68
2022/05/20 02:21:12;;;;;;;35.72;23.48;;;;;;;;;;5042329;28;20623;-68
2022/05/20 02:23:44;;;;;;;42.53;25.98;;;;;;;;;;5033364;28;20636;-68
2022/05/20 02:26:13;;;;;;;40.03;25.13;;;;;;;;;;5033561;28;20201;-68
2022/05/20 02:28:43;;;;;;;38.97;25.90;;;;;;;;;;5037680;28;20220;-68
2022/05/20 02:31:15;;;;;;;39.15;25.27;;;;;;;;;;5028312;28;20206;-68
2022/05/20 02:33:40;;;;;;;40.65;24.98;;;;;;;;;;5041744;28;20620;-68
2022/05/20 02:36:17;;;;;;;41.00;25.75;;;;;;;;;;5044181;28;20264;-68
2022/05/20 02:38:42;;;;;;;39.58;25.85;;;;;;;;;;5032541;28;20186;-68
2022/05/20 02:41:08;;;;;;;43.13;24.27;;;;;;;;;;5040235;28;20189;-68
2022/05/20 02:43:34;;;;;;;36.10;24.67;;;;;;;;;;5038046;28;20177;-68
2022/05/20 02:45:59;;;;;;;40.17;26.00;;;;;;;;;;5033676;28;20185;-68
2022/05/20 02:48:25;;;;;;;43.40;26.45;;;;;;;;;;5037701;28;20530;-68
2022/05/20 02:50:50;;;;;;;45.13;27.40;;;;;;;;;;5045878;28;20189;-68
2022/05/20 02:53:16;;;;;;;40.58;27.38;;;;;;;;;;5039501;28;20182;-68
2022/05/20 02:55:42;;;;;;;43.97;26.65;;;;;;;;;;5036677;28;20182;-68
2022/05/20 02:58:07;;;;;;;46.60;27.65;;;;;;;;;;5035201;28;20225;-68
2022/05/20 03:06:05;;;;;;;36.90;24.38;;;;;;;;;;5041012;28;20193;-68
2022/05/20 03:08:30;;;;;;;34.28;23.92;;;;;;;;;;5042354;28;20618;-68
2022/05/20 03:10:56;;;;;;;40.60;25.08;;;;;;;;;;5033752;28;20592;-68
2022/05/20 03:13:21;;;;;;;40.95;24.83;;;;;;;;;;5045530;28;20181;-68
2022/05/20 03:15:46;;;;;;;37.45;24.15;;;;;;;;;;5043867;28;20253;-68
2022/05/20 03:18:13;;;;;;;37.25;24.63;;;;;;;;;;5039110;28;20205;-68
2022/05/20 03:20:41;;;;;;;42.45;25.58;;;;;;;;;;5035864;28;20288;-68
2022/05/20 03:23:07;;;;;;;45.45;26.42;;;;;;;;;;5044665;28;20664;-68
2022/05/20 03:25:35;;;;;;;42.58;26.15;;;;;;;;;;5030713;28;20263;-69
2022/05/20 03:28:01;;;;;;;68.97;27.40;;;;;;;;;;5032517;28;20674;-68
2022/05/20 03:30:27;;;;;;;93.32;27.77;;;;;;;;;;5027767;28;20186;-68
2022/05/20 03:32:52;;;;;;;130.85;29.08;;;;;;;;;;5036352;28;20181;-68
2022/05/20 03:35:18;;;;;;;67.32;25.88;;;;;;;;;;5038900;28;20185;-68
2022/05/20 03:37:43;;;;;;;41.28;25.17;;;;;;;;;;5050813;28;20271;-68
2022/05/20 03:40:09;;;;;;;39.50;25.35;;;;;;;;;;5046893;28;20177;-68
2022/05/20 03:42:34;;;;;;;43.75;26.25;;;;;;;;;;5038121;28;20221;-68
2022/05/20 03:45:00;;;;;;;40.95;24.83;;;;;;;;;;5043361;28;20206;-68
2022/05/20 03:47:25;;;;;;;38.65;24.95;;;;;;;;;;5035168;28;20197;-68
2022/05/20 03:49:51;;;;;;;39.90;25.13;;;;;;;;;;5033871;28;20623;-68
2022/05/20 03:52:16;;;;;;;32.75;23.20;;;;;;;;;;5046108;28;20537;-68
2022/05/20 03:54:42;;;;;;;37.63;24.38;;;;;;;;;;5042429;28;20645;-67
2022/05/20 03:57:08;;;;;;;39.30;25.85;;;;;;;;;;5034124;28;20178;-68
2022/05/20 03:59:36;;;;;;;47.78;28.00;;;;;;;;;;5035094;28;20182;-68
2022/05/20 04:02:05;;;;;;;40.42;27.08;;;;;;;;;;5040497;28;20182;-68
2022/05/20 04:04:39;;;;;;;40.33;25.70;;;;;;;;;;5043138;28;20215;-68
2022/05/20 04:07:15;;;;;;;40.35;26.20;;;;;;;;;;5036374;28;20221;-68
2022/05/20 04:09:41;;;;;;;40.30;25.95;;;;;;;;;;5046243;28;20313;-68
2022/05/20 04:12:11;;;;;;;40.00;26.38;;;;;;;;;;5047506;28;20304;-68
2022/05/20 04:14:36;;;;;;;33.28;23.50;;;;;;;;;;5037859;28;20556;-68
2022/05/20 04:17:03;;;;;;;34.00;24.38;;;;;;;;;;5033760;28;20170;-68
2022/05/20 04:19:30;;;;;;;32.35;22.70;;;;;;;;;;5038432;28;20193;-68
2022/05/20 04:22:04;;;;;;;29.40;22.67;;;;;;;;;;5044191;28;20192;-69
2022/05/20 04:24:29;;;;;;;30.15;22.30;;;;;;;;;;5031203;28;20264;-68
2022/05/20 04:26:55;;;;;;;27.75;21.95;;;;;;;;;;5042223;28;20681;-68
2022/05/20 04:29:20;;;;;;;30.63;22.92;;;;;;;;;;5037271;28;20201;-68
2022/05/20 04:31:49;;;;;;;29.33;21.13;;;;;;;;;;5033690;28;20296;-68
2022/05/20 04:34:14;;;;;;;29.25;22.13;;;;;;;;;;5040810;28;20190;-68
2022/05/20 04:36:40;;;;;;;27.52;20.48;;;;;;;;;;5041368;28;20633;-68
2022/05/20 04:39:06;;;;;;;25.70;20.90;;;;;;;;;;5030438;28;21786;-68
2022/05/20 04:47:01;;;;;;;30.95;22.67;;;;;;;;;;5032824;28;20228;-68
2022/05/20 04:49:32;;;;;;;30.70;23.00;;;;;;;;;;5034075;28;20216;-68
2022/05/20 04:52:00;;;;;;;29.50;23.10;;;;;;;;;;5039359;28;20190;-68
2022/05/20 04:57:25;;;;;;;29.83;23.30;;;;;;;;;;5038368;28;20203;-69
2022/05/20 04:59:53;;;;;;;31.65;23.17;;;;;;;;;;5043836;28;20595;-68
2022/05/20 05:02:19;;;;;;;33.08;24.33;;;;;;;;;;5041726;28;20182;-68
2022/05/20 05:04:45;;;;;;;32.08;23.58;;;;;;;;;;5044054;28;20208;-69
2022/05/20 05:07:11;;;;;;;34.17;24.67;;;;;;;;;;5039882;28;20269;-69
2022/05/20 05:09:38;;;;;;;36.92;27.20;;;;;;;;;;5037486;28;20242;-68
2022/05/20 05:12:04;;;;;;;31.67;24.13;;;;;;;;;;5031220;28;20385;-68
2022/05/20 05:14:38;;;;;;;27.13;21.35;;;;;;;;;;5047693;28;20173;-68
2022/05/20 05:17:05;;;;;;;30.05;21.85;;;;;;;;;;5037076;28;20196;-68
2022/05/20 05:19:33;;;;;;;31.65;22.13;;;;;;;;;;5033759;28;20255;-68
2022/05/20 05:21:58;;;;;;;33.90;24.02;;;;;;;;;;5044161;28;20181;-68
2022/05/20 05:24:24;;;;;;;28.63;22.60;;;;;;;;;;5043521;28;20631;-68
2022/05/20 05:26:49;;;;;;;34.05;25.23;;;;;;;;;;5033897;28;20182;-68
2022/05/20 05:29:14;;;;;;;32.08;23.38;;;;;;;;;;5041722;28;20192;-68
2022/05/20 05:31:40;;;;;;;30.55;24.05;;;;;;;;;;5039576;28;20761;-68
2022/05/20 05:34:06;;;;;;;33.13;25.48;;;;;;;;;;5044676;28;20268;-69
2022/05/20 05:36:31;;;;;;;32.60;24.77;;;;;;;;;;5032273;28;20185;-68
2022/05/20 05:38:57;;;;;;;32.95;24.48;;;;;;;;;;5040503;28;20181;-68
2022/05/20 05:41:22;;;;;;;37.65;26.17;;;;;;;;;;5041423;28;20563;-68
2022/05/20 05:43:48;;;;;;;36.58;26.42;;;;;;;;;;5040922;28;20202;-68
2022/05/20 05:46:13;;;;;;;40.63;28.33;;;;;;;;;;5036638;28;20193;-69
2022/05/20 05:48:39;;;;;;;39.70;28.48;;;;;;;;;;5032164;28;20190;-69
2022/05/20 05:51:05;;;;;;;43.35;30.23;;;;;;;;;;5043320;28;20268;-69
2022/05/20 05:53:30;;;;;;;42.75;30.65;;;;;;;;;;5041632;28;20177;-69
2022/05/20 05:55:58;;;;;;;41.35;29.38;;;;;;;;;;5036437;28;20174;-69
2022/05/20 05:58:28;;;;;;;43.03;30.48;;;;;;;;;;5028213;28;20185;-68
2022/05/20 06:00:55;;;;;;;40.35;29.60;;;;;;;;;;5041610;28;20271;-69
2022/05/20 06:03:21;;;;;;;42.80;30.63;;;;;;;;;;5029004;28;20765;-69
2022/05/20 06:05:46;;;;;;;36.47;28.27;;;;;;;;;;5035880;28;20272;-69
2022/05/20 06:08:12;;;;;;;41.08;28.77;;;;;;;;;;5036522;28;20186;-68
2022/05/20 06:10:37;;;;;;;38.97;28.33;;;;;;;;;;5035248;28;20226;-68
2022/05/20 06:13:03;;;;;;;35.78;26.92;;;;;;;;;;5033584;28;20178;-67
2022/05/20 06:15:29;;;;;;;32.28;24.98;;;;;;;;;;5031460;28;20185;-68
2022/05/20 06:17:56;;;;;;;34.33;24.27;;;;;;;;;;5034161;28;20301;-69
2022/05/20 06:20:23;;;;;;;38.33;24.30;;;;;;;;;;5044755;28;20260;-70
2022/05/20 06:22:49;;;;;;;31.70;23.00;;;;;;;;;;5035342;28;20192;-69
2022/05/20 06:25:14;;;;;;;32.60;21.65;;;;;;;;;;5039231;28;20189;-69
2022/05/20 06:27:40;;;;;;;27.90;20.77;;;;;;;;;;5041191;28;20185;-68
2022/05/20 06:30:08;;;;;;;30.95;21.02;;;;;;;;;;5037238;28;20186;-68
2022/05/20 06:32:35;;;;;;;30.60;19.58;;;;;;;;;;5039792;28;20293;-71
2022/05/20 06:40:37;;;;;;;27.35;17.92;;;;;;;;;;5038944;28;20197;-69
2022/05/20 06:43:04;;;;;;;23.75;18.45;;;;;;;;;;5037763;28;20193;-69
2022/05/20 06:45:31;;;;;;;23.55;17.38;;;;;;;;;;5038138;28;20705;-70
2022/05/20 06:47:58;;;;;;;22.95;16.00;;;;;;;;;;5035978;28;20185;-70
2022/05/20 06:50:23;;;;;;;21.55;15.38;;;;;;;;;;5038929;28;20193;-68
2022/05/20 06:52:49;;;;;;;21.60;15.15;;;;;;;;;;5039520;28;20193;-69
2022/05/20 06:55:14;;;;;;;17.27;13.60;;;;;;;;;;5036965;28;20169;-69
2022/05/20 06:57:40;;;;;;;23.65;12.75;;;;;;;;;;5040265;28;20177;-68
2022/05/20 07:00:11;;;;;;;16.75;12.18;;;;;;;;;;5037159;28;20181;-70
2022/05/20 07:02:37;;;;;;;15.90;12.32;;;;;;;;;;5035717;28;20239;-68
2022/05/20 07:05:04;;;;;;;13.88;11.90;;;;;;;;;;5040219;28;20246;-70
2022/05/20 07:07:30;;;;;;;15.15;12.10;;;;;;;;;;5038086;28;20208;-69
2022/05/20 07:09:56;;;;;;;16.60;13.25;;;;;;;;;;5038229;28;20228;-69
2022/05/20 07:12:21;;;;;;;17.77;13.60;;;;;;;;;;5046553;28;20221;-66
2022/05/20 07:14:47;;;;;;;17.80;11.93;;;;;;;;;;5042311;28;20598;-65
2022/05/20 07:17:19;;;;;;;17.73;12.68;;;;;;;;;;5046407;28;20193;-65
2022/05/20 07:19:44;;;;;;;16.95;12.60;;;;;;;;;;5036767;28;20554;-66
2022/05/20 07:22:10;;;;;;;16.48;13.48;;;;;;;;;;5046304;28;20181;-69
2022/05/20 07:24:37;;;;;;;18.27;13.18;;;;;;;;;;5039848;28;20209;-68
2022/05/20 07:27:03;;;;;;;16.45;12.93;;;;;;;;;;5041326;28;20652;-67
2022/05/20 07:29:28;;;;;;;18.08;13.88;;;;;;;;;;5039277;28;20189;-69
2022/05/20 07:31:53;;;;;;;16.77;11.73;;;;;;;;;;5030582;28;20208;-68
2022/05/20 07:34:19;;;;;;;15.48;12.98;;;;;;;;;;5031876;28;20224;-67
2022/05/20 07:36:44;;;;;;;19.27;12.88;;;;;;;;;;5043390;28;20697;-68
2022/05/20 07:39:10;;;;;;;16.30;12.52;;;;;;;;;;5038080;28;20259;-68
2022/05/20 07:41:35;;;;;;;15.32;11.70;;;;;;;;;;5042643;28;20226;-69
2022/05/20 07:44:02;;;;;;;16.10;11.32;;;;;;;;;;5042045;28;20201;-69
2022/05/20 07:46:28;;;;;;;15.07;10.52;;;;;;;;;;5039125;28;20273;-68
2022/05/20 07:48:54;;;;;;;14.73;10.48;;;;;;;;;;5040945;28;20257;-68
2022/05/20 07:51:24;;;;;;;17.58;12.43;;;;;;;;;;5043334;28;20204;-69
2022/05/20 07:53:54;;;;;;;15.93;11.60;;;;;;;;;;5040168;28;20186;-69
2022/05/20 07:56:24;;;;;;;19.13;12.75;;;;;;;;;;5042240;28;20190;-70
2022/05/20 07:59:18;;;;;;;20.58;13.35;;;;;;;;;;5043313;28;20428;-69
2022/05/20 08:01:48;;;;;;;19.10;12.32;;;;;;;;;;5038008;28;20266;-69
2022/05/20 08:07:05;;;;;;;15.95;11.32;;;;;;;;;;5043535;28;20236;-67
2022/05/20 08:09:31;;;;;;;15.23;12.45;;;;;;;;;;5038317;28;20556;-68
2022/05/20 08:11:57;;;;;;;14.32;10.93;;;;;;;;;;5042936;28;20575;-69
2022/05/20 08:14:24;;;;;;;13.98;10.77;;;;;;;;;;5046143;28;20181;-68
2022/05/20 08:16:49;;;;;;;12.73;10.25;;;;;;;;;;5038658;28;20177;-67
2022/05/20 08:19:14;;;;;;;15.85;9.52;;;;;;;;;;5043457;28;20700;-69
2022/05/20 08:21:40;;;;;;;12.80;8.68;;;;;;;;;;5046200;28;20182;-67
2022/05/20 08:24:06;;;;;;;13.52;8.88;;;;;;;;;;5045319;28;20212;-69
2022/05/20 08:26:31;;;;;;;12.57;9.45;;;;;;;;;;5046029;28;20180;-69
2022/05/20 08:28:57;;;;;;;9.77;8.55;;;;;;;;;;5038000;28;20621;-69
2022/05/20 08:31:22;;;;;;;11.38;8.65;;;;;;;;;;5043158;28;20216;-69
2022/05/20 08:33:50;;;;;;;10.05;8.07;;;;;;;;;;5042075;28;20200;-68
2022/05/20 08:36:16;;;;;;;10.50;8.35;;;;;;;;;;5034779;28;20182;-66
2022/05/20 08:38:42;;;;;;;14.13;8.18;;;;;;;;;;5039199;28;20585;-66
2022/05/20 08:41:17;;;;;;;10.15;7.68;;;;;;;;;;5041027;28;20292;-67
2022/05/20 08:43:42;;;;;;;9.55;7.25;;;;;;;;;;5042127;28;20574;-67
2022/05/20 08:46:08;;;;;;;13.63;8.98;;;;;;;;;;5040496;28;20186;-67
2022/05/20 08:48:34;;;;;;;11.38;9.20;;;;;;;;;;5041085;28;20264;-68
2022/05/20 08:51:01;;;;;;;11.25;8.55;;;;;;;;;;5047516;28;20692;-68
2022/05/20 08:53:40;;;;;;;9.73;7.72;;;;;;;;;;5042751;28;20228;-67
2022/05/20 08:56:09;;;;;;;8.90;7.65;;;;;;;;;;5042233;28;20177;-67
2022/05/20 08:58:36;;;;;;;13.07;7.70;;;;;;;;;;5044418;28;20632;-68
2022/05/20 09:01:03;;;;;;;11.57;7.68;;;;;;;;;;5040424;28;20189;-69
2022/05/20 09:03:28;;;;;;;8.67;6.90;;;;;;;;;;5041967;28;20260;-66
2022/05/20 09:06:07;;;;;;;14.18;7.95;;;;;;;;;;5043343;28;20396;-66
2022/05/20 09:08:33;;;;;;;14.10;7.72;;;;;;;;;;5042266;28;20224;-68
2022/05/20 09:11:01;;;;;;;9.23;7.43;;;;;;;;;;5041154;28;20272;-69
2022/05/20 09:16:21;;;;;;;14.65;9.10;;;;;;;;;;5043479;28;20242;-69
2022/05/20 09:19:15;;;;;;;12.43;7.85;;;;;;;;;;5035717;28;20220;-70
2022/05/20 09:21:43;;;;;;;10.85;7.57;;;;;;;;;;5041762;28;20276;-71
2022/05/20 09:24:17;;;;;;;10.82;7.72;;;;;;;;;;5042632;28;20202;-70
2022/05/20 09:26:47;;;;;;;9.55;7.50;;;;;;;;;;5044423;28;20727;-68
2022/05/20 09:29:26;;;;;;;12.00;8.18;;;;;;;;;;5044371;28;20184;-69
2022/05/20 09:32:00;;;;;;;15.20;8.30;;;;;;;;;;5039254;28;20198;-69
2022/05/20 09:34:26;;;;;;;14.57;7.68;;;;;;;;;;5040638;28;20652;-69
2022/05/20 09:36:58;;;;;;;10.35;7.35;;;;;;;;;;5043648;28;20177;-69
2022/05/20 09:39:38;;;;;;;10.63;7.57;;;;;;;;;;5041261;28;20522;-70
2022/05/20 09:42:17;;;;;;;11.82;7.38;;;;;;;;;;5047356;28;20189;-67
2022/05/20 09:44:47;;;;;;;10.43;7.55;;;;;;;;;;5042579;28;20767;-68
2022/05/20 09:47:32;;;;;;;12.73;7.63;;;;;;;;;;5037899;28;20174;-70
2022/05/20 09:50:22;;;;;;;10.57;7.28;;;;;;;;;;5040882;28;20181;-69
2022/05/20 09:53:12;;;;;;;8.32;6.55;;;;;;;;;;5043386;28;20214;-68
2022/05/20 09:55:40;;;;;;;11.48;6.43;;;;;;;;;;5044037;28;20186;-69
2022/05/20 09:58:16;;;;;;;9.13;5.90;;;;;;;;;;5045553;28;20187;-69
2022/05/20 10:00:46;;;;;;;9.07;6.53;;;;;;;;;;5044354;28;20212;-67
2022/05/20 10:03:21;;;;;;;9.05;6.40;;;;;;;;;;5041154;28;20184;-70
2022/05/20 10:06:02;;;;;;;11.40;7.90;;;;;;;;;;5038146;28;20690;-71
2022/05/20 10:08:53;;;;;;;11.77;7.30;;;;;;;;;;5041466;28;20182;-70
2022/05/20 10:11:35;;;;;;;8.52;6.25;;;;;;;;;;5037085;28;20775;-68
2022/05/20 10:14:14;;;;;;;11.40;7.05;;;;;;;;;;5044688;28;20174;-69
2022/05/20 10:17:12;;;;;;;10.10;6.00;;;;;;;;;;5043582;28;20184;-70
2022/05/20 10:19:58;;;;;;;8.98;6.45;;;;;;;;;;5021289;28;20222;-67
2022/05/20 10:22:32;;;;;;;9.07;6.07;;;;;;;;;;5040597;28;20188;-71
2022/05/20 10:25:11;;;;;;;8.27;6.22;;;;;;;;;;5040832;28;20270;-69
2022/05/20 10:27:46;;;;;;;16.00;7.20;;;;;;;;;;5033265;28;20450;-71
2022/05/20 10:33:12;;;;;;;9.80;7.03;;;;;;;;;;5041173;28;20269;-69
2022/05/20 10:35:56;;;;;;;8.90;6.30;;;;;;;;;;5036771;28;20180;-68
2022/05/20 10:38:49;;;;;;;9.18;5.25;;;;;;;;;;5038836;28;20196;-65
2022/05/20 10:41:43;;;;;;;7.00;5.32;;;;;;;;;;5040273;28;20178;-66
2022/05/20 10:50:28;;;;;;;7.57;5.47;;;;;;;;;;5034706;28;20224;-67
2022/05/20 10:53:21;;;;;;;6.22;4.50;;;;;;;;;;5029907;28;20653;-70
2022/05/20 10:56:21;;;;;;;7.95;5.43;;;;;;;;;;5027984;28;20182;-70
2022/05/20 10:59:21;;;;;;;10.18;5.32;;;;;;;;;;5030996;28;20649;-70
2022/05/20 11:01:50;;;;;;;6.95;5.55;;;;;;;;;;5040137;28;20250;-70
2022/05/20 11:04:29;;;;;;;9.75;4.93;;;;;;;;;;5031540;28;20238;-71
2022/05/20 11:07:22;;;;;;;6.93;5.47;;;;;;;;;;5041472;28;20584;-71
2022/05/20 11:09:50;;;;;;;5.57;5.07;;;;;;;;;;5040373;28;20230;-66
2022/05/20 11:12:48;;;;;;;9.23;6.50;;;;;;;;;;5036501;28;20241;-70
2022/05/20 11:15:25;;;;;;;10.07;5.95;;;;;;;;;;5027440;28;20256;-70
2022/05/20 11:18:14;;;;;;;9.82;6.70;;;;;;;;;;5041250;28;20188;-68
2022/05/20 11:21:07;;;;;;;6.97;5.32;;;;;;;;;;5034011;28;20181;-65
2022/05/20 11:24:02;;;;;;;7.85;5.70;;;;;;;;;;5027239;28;20265;-66
2022/05/20 11:26:44;;;;;;;6.90;4.97;;;;;;;;;;5038872;28;20670;-67
2022/05/20 11:29:43;;;;;;;6.57;5.20;;;;;;;;;;5026949;28;20705;-69
2022/05/20 11:32:27;;;;;;;9.20;5.50;;;;;;;;;;5031826;28;20267;-71
2022/05/20 11:35:35;;;;;;;8.70;5.50;;;;;;;;;;5046405;28;20239;-70
2022/05/20 11:38:10;;;;;;;6.97;4.97;;;;;;;;;;5030083;28;20201;-70
2022/05/20 11:40:53;;;;;;;7.22;5.18;;;;;;;;;;5032517;28;20185;-70
2022/05/20 11:43:37;;;;;;;9.40;4.78;;;;;;;;;;5046728;28;20181;-69
2022/05/20 11:46:27;;;;;;;10.43;4.93;;;;;;;;;;5033564;28;20185;-70
2022/05/20 11:49:18;;;;;;;7.00;5.20;;;;;;;;;;5029655;28;20196;-70
2022/05/20 11:51:55;;;;;;;7.18;4.75;;;;;;;;;;5035554;28;20194;-67
2022/05/20 11:54:43;;;;;;;7.03;4.05;;;;;;;;;;5028257;28;20178;-68
2022/05/20 11:57:13;;;;;;;5.72;3.80;;;;;;;;;;5045827;28;20620;-68
2022/05/20 11:59:51;;;;;;;5.40;3.58;;;;;;;;;;5047016;28;20193;-70
2022/05/20 12:02:18;;;;;;;5.57;3.65;;;;;;;;;;5048903;28;20238;-70
2022/05/20 12:04:46;;;;;;;4.65;3.58;;;;;;;;;;5040434;28;20248;-70
2022/05/20 12:07:14;;;;;;;4.68;3.72;;;;;;;;;;5027477;28;20193;-70
2022/05/20 12:09:43;;;;;;;7.32;3.40;;;;;;;;;;5035211;28;20236;-69
2022/05/20 12:12:21;;;;;;;9.13;4.03;;;;;;;;;;5050707;28;20228;-70
2022/05/20 12:15:05;;;;;;;6.40;3.90;;;;;;;;;;5038217;28;20254;-70
2022/05/20 12:17:47;;;;;;;6.40;3.78;;;;;;;;;;5040280;28;20181;-69
2022/05/20 12:25:52;;;;;;;6.68;4.40;;;;;;;;;;5049499;28;20289;-72
2022/05/20 12:28:20;;;;;;;6.85;4.50;;;;;;;;;;5049890;28;20182;-71
2022/05/20 12:31:02;;;;;;;5.03;4.10;;;;;;;;;;5038809;28;20212;-71
2022/05/20 12:34:15;;;;;;;5.60;3.90;;;;;;;;;;5044612;28;20180;-71
2022/05/20 12:36:42;;;;;;;6.38;3.42;;;;;;;;;;5033231;28;20189;-70
2022/05/20 12:39:07;;;;;;;3.63;3.08;;;;;;;;;;5033724;28;20284;-71
2022/05/20 12:41:56;;;;;;;4.45;3.00;;;;;;;;;;5029831;28;20292;-71
2022/05/20 12:44:21;;;;;;;3.55;3.05;;;;;;;;;;5026846;28;20256;-71
2022/05/20 12:47:04;;;;;;;5.07;3.30;;;;;;;;;;5029380;28;20205;-71
2022/05/20 12:49:42;;;;;;;5.18;3.30;;;;;;;;;;5042074;28;20661;-72
2022/05/20 12:52:45;;;;;;;5.53;2.90;;;;;;;;;;5038904;28;20204;-69
2022/05/20 12:55:17;;;;;;;5.10;3.60;;;;;;;;;;5017603;28;20209;-72
2022/05/20 12:57:53;;;;;;;6.55;3.15;;;;;;;;;;5041928;28;20186;-72
2022/05/20 13:00:29;;;;;;;3.80;2.55;;;;;;;;;;5043304;28;20235;-73
2022/05/20 13:03:00;;;;;;;4.50;3.33;;;;;;;;;;5043693;28;20637;-72
2022/05/20 13:05:48;;;;;;;5.82;3.20;;;;;;;;;;5031572;28;20206;-72
2022/05/20 13:08:20;;;;;;;4.80;3.58;;;;;;;;;;5037986;28;20256;-72
2022/05/20 13:10:46;;;;;;;5.75;3.33;;;;;;;;;;5032943;28;20595;-72
2022/05/20 13:13:15;;;;;;;6.32;4.22;;;;;;;;;;5038310;28;20178;-72
2022/05/20 13:15:48;;;;;;;7.63;3.88;;;;;;;;;;5037464;28;20180;-72
2022/05/20 13:18:24;;;;;;;5.55;4.18;;;;;;;;;;5038549;28;20205;-72
2022/05/20 13:20:59;;;;;;;6.55;4.38;;;;;;;;;;5042755;28;20234;-72
2022/05/20 13:23:33;;;;;;;10.90;5.20;;;;;;;;;;5038009;28;20531;-71
2022/05/20 13:25:58;;;;;;;9.20;5.25;;;;;;;;;;5043558;28;20178;-71
2022/05/20 13:28:25;;;;;;;8.27;5.43;;;;;;;;;;5041757;28;20181;-72
2022/05/20 13:30:58;;;;;;;7.72;5.82;;;;;;;;;;5042766;28;20276;-71
2022/05/20 13:33:23;;;;;;;10.88;6.20;;;;;;;;;;5029894;28;20321;-68
2022/05/20 13:35:52;;;;;;;9.10;6.25;;;;;;;;;;5039997;28;20610;-70
2022/05/20 13:38:18;;;;;;;11.07;7.03;;;;;;;;;;5043237;28;20669;-71
2022/05/20 13:40:45;;;;;;;8.93;7.35;;;;;;;;;;5041917;28;20185;-71
2022/05/20 13:43:13;;;;;;;15.73;8.20;;;;;;;;;;5041655;28;20292;-71
2022/05/20 13:51:37;;;;;;;16.95;10.02;;;;;;;;;;5043327;28;20196;-72
2022/05/20 13:54:07;;;;;;;14.88;9.75;;;;;;;;;;5038963;28;20260;-72
2022/05/20 13:56:36;;;;;;;22.33;10.50;;;;;;;;;;5034930;28;20178;-71
2022/05/20 13:59:17;;;;;;;15.05;10.25;;;;;;;;;;5036449;28;20251;-71
2022/05/20 14:01:47;;;;;;;15.15;10.20;;;;;;;;;;5040083;28;20253;-70
2022/05/20 14:04:12;;;;;;;17.38;11.02;;;;;;;;;;5035977;28;20206;-69
2022/05/20 14:06:38;;;;;;;16.23;10.52;;;;;;;;;;5034338;28;20762;-68
2022/05/20 14:09:03;;;;;;;17.65;10.48;;;;;;;;;;5037840;28;20185;-68
2022/05/20 14:11:36;;;;;;;15.23;11.07;;;;;;;;;;5026398;28;20271;-68
2022/05/20 14:14:04;;;;;;;16.40;10.73;;;;;;;;;;5034925;28;20239;-67
2022/05/20 14:16:35;;;;;;;13.00;9.80;;;;;;;;;;5040120;28;20186;-67
2022/05/20 14:19:06;;;;;;;14.90;10.63;;;;;;;;;;5035051;28;20181;-67
2022/05/20 14:21:39;;;;;;;13.75;10.68;;;;;;;;;;5035685;28;20653;-68
2022/05/20 14:24:20;;;;;;;14.55;9.90;;;;;;;;;;5026858;28;20198;-67
2022/05/20 14:26:55;;;;;;;13.65;9.45;;;;;;;;;;5030266;28;20179;-67
2022/05/20 14:29:27;;;;;;;13.20;10.70;;;;;;;;;;5039541;28;20533;-67
2022/05/20 14:31:57;;;;;;;12.75;9.75;;;;;;;;;;5030298;28;20197;-67
2022/05/20 14:34:35;;;;;;;15.35;10.18;;;;;;;;;;5040786;28;20212;-67
2022/05/20 14:37:24;;;;;;;12.20;10.55;;;;;;;;;;5039089;28;20268;-67
2022/05/20 14:40:00;;;;;;;14.93;10.40;;;;;;;;;;5024479;28;20210;-67
2022/05/20 14:42:31;;;;;;;15.50;10.50;;;;;;;;;;5028075;28;20258;-68
2022/05/20 14:45:00;;;;;;;16.38;11.02;;;;;;;;;;5034646;28;20645;-68
2022/05/20 14:47:35;;;;;;;14.57;10.98;;;;;;;;;;5046036;28;20181;-68
2022/05/20 14:50:14;;;;;;;16.00;11.55;;;;;;;;;;5027558;28;20186;-68
2022/05/20 14:52:48;;;;;;;18.63;11.82;;;;;;;;;;5041528;28;20544;-68
2022/05/20 14:55:26;;;;;;;14.65;12.48;;;;;;;;;;5043793;28;20191;-68
2022/05/20 14:58:24;;;;;;;18.40;13.23;;;;;;;;;;5039119;28;20258;-68
2022/05/20 15:01:02;;;;;;;17.70;12.27;;;;;;;;;;5028262;28;20206;-68
2022/05/20 15:03:34;;;;;;;19.00;13.90;;;;;;;;;;5026798;28;20184;-67
2022/05/20 15:05:59;;;;;;;20.67;14.77;;;;;;;;;;5032334;28;20198;-68
2022/05/20 15:08:28;;;;;;;18.42;14.48;;;;;;;;;;5040282;28;20246;-68
2022/05/20 15:11:02;;;;;;;21.40;16.02;;;;;;;;;;5030853;28;20229;-68
2022/05/20 15:13:28;;;;;;;22.35;16.52;;;;;;;;;;5033292;28;20188;-68
2022/05/20 15:15:54;;;;;;;25.77;18.60;;;;;;;;;;5037123;28;20538;-69
2022/05/20 15:18:21;;;;;;;28.35;19.33;;;;;;;;;;5039419;28;20179;-70
2022/05/20 15:20:53;;;;;;;37.97;26.15;;;;;;;;;;5037339;28;20196;-71
2022/05/20 15:23:27;;;;;;;44.47;27.88;;;;;;;;;;5044435;28;20596;-71
2022/05/20 15:25:53;;;;;;;37.80;25.98;;;;;;;;;;5037324;28;20234;-74
2022/05/20 15:36:33;;;;;;;26.92;16.77;;;;;;;;;;5049793;28;20259;-71
2022/05/20 15:38:59;;;;;;;23.70;16.85;;;;;;;;;;5043508;28;20205;-70
2022/05/20 15:41:26;;;;;;;27.20;17.83;;;;;;;;;;5044639;28;20186;-69